createdAt,value
2023-04-22T00:01:18.196Z,10.05
2023-04-22T00:05:47.082Z,9.94
2023-04-22T00:23:07.375Z,9.60
2023-04-22T00:44:54.352Z,9.13
2023-04-22T00:49:22.810Z,9.03
2023-04-22T00:53:52.695Z,8.93
2023-04-22T01:11:07.128Z,8.66
2023-04-22T01:15:29.061Z,8.57
2023-04-22T01:37:15.867Z,8.16
2023-04-22T01:41:44.818Z,8.04
2023-04-22T01:46:13.764Z,7.93
2023-04-22T01:50:31.570Z,7.84
2023-04-22T02:16:32.154Z,7.64
2023-04-22T02:21:01.414Z,7.62
2023-04-22T02:25:30.118Z,7.57
2023-04-22T02:47:15.829Z,7.40
2023-04-22T02:51:45.177Z,7.32
2023-04-22T03:08:49.719Z,7.11
2023-04-22T03:13:18.212Z,6.99
2023-04-22T03:17:39.228Z,6.89
2023-04-22T03:43:28.653Z,6.31
2023-04-22T03:47:57.693Z,6.24
2023-04-22T03:52:16.967Z,6.17
2023-04-22T04:09:28.960Z,7.20
2023-04-22T04:13:58.258Z,7.85
2023-04-22T04:18:20.377Z,8.45
2023-04-22T04:22:42.165Z,8.78
2023-04-22T04:27:10.925Z,8.94
2023-04-22T04:45:27.967Z,9.37
2023-04-22T04:49:56.153Z,9.48
2023-04-22T05:06:57.384Z,9.99
2023-04-22T05:11:26.137Z,10.07
2023-04-22T05:15:37.993Z,10.20
2023-04-22T05:32:35.460Z,10.62
2023-04-22T05:37:04.458Z,10.75
2023-04-22T05:50:28.203Z,11.38
2023-04-22T05:54:57.429Z,11.58
2023-04-22T05:59:26.272Z,11.71
2023-04-22T06:03:55.264Z,11.88
2023-04-22T06:08:16.243Z,12.12
2023-04-22T06:12:44.826Z,12.37
2023-04-22T06:47:38.098Z,14.17
2023-04-22T06:52:06.992Z,14.47
2023-04-22T07:12:56.011Z,15.37
2023-04-22T07:16:40.722Z,15.50
2023-04-22T07:21:10.071Z,15.56
2023-04-22T07:25:34.169Z,15.68
2023-04-22T07:47:00.841Z,16.66
2023-04-22T07:51:30.055Z,16.95
2023-04-22T07:55:43.014Z,17.26
2023-04-22T08:00:13.052Z,17.55
2023-04-22T08:04:34.109Z,17.72
2023-04-22T08:09:04.353Z,17.94
2023-04-22T08:30:11.495Z,18.50
2023-04-22T08:34:43.954Z,18.59
2023-04-22T08:38:55.757Z,18.79
2023-04-22T08:43:12.993Z,18.98
2023-04-22T09:13:42.859Z,20.57
2023-04-22T09:18:14.732Z,20.71
2023-04-22T09:39:48.634Z,21.25
2023-04-22T09:44:09.590Z,21.29
2023-04-22T09:48:43.473Z,21.56
2023-04-22T09:53:00.363Z,21.78
2023-04-22T09:57:29.239Z,22.03
2023-04-22T10:31:14.471Z,23.05
2023-04-22T10:35:50.769Z,23.12
2023-04-22T10:40:12.983Z,23.11
2023-04-22T11:06:32.402Z,24.05
2023-04-22T11:10:41.527Z,24.23
2023-04-22T11:14:53.644Z,24.23
2023-04-22T11:19:04.461Z,24.27
2023-04-22T11:23:07.575Z,24.41
2023-04-22T11:48:15.893Z,25.15
2023-04-22T11:52:53.357Z,25.43
2023-04-22T11:56:53.502Z,25.53
2023-04-22T12:01:15.132Z,25.54
2023-04-22T12:05:33.742Z,25.65
2023-04-22T12:10:07.359Z,25.73
2023-04-22T12:14:32.349Z,25.78
2023-04-22T12:19:13.534Z,25.77
2023-04-22T12:23:19.850Z,25.89
2023-04-22T12:27:26.611Z,25.98
2023-04-22T12:53:26.481Z,26.84
2023-04-22T12:57:46.258Z,26.91
2023-04-22T13:02:15.482Z,26.95
2023-04-22T13:06:33.819Z,27.04
2023-04-22T13:10:55.699Z,27.12
2023-04-22T13:32:28.432Z,27.14
2023-04-22T13:36:57.689Z,27.20
2023-04-22T13:41:06.193Z,27.22
2023-04-22T13:49:13.876Z,27.13
2023-04-22T13:53:42.606Z,27.19
2023-04-22T13:57:35.535Z,27.23
2023-04-22T14:01:22.223Z,27.24
2023-04-22T14:04:18.737Z,27.18
2023-04-22T14:07:51.151Z,27.10
2023-04-22T14:11:22.468Z,27.11
2023-04-22T14:15:34.039Z,27.12
2023-04-22T14:20:02.716Z,27.12
2023-04-22T14:23:38.005Z,27.15
2023-04-22T14:27:59.028Z,27.18
2023-04-22T14:32:28.140Z,27.07
2023-04-22T14:36:43.376Z,27.03
2023-04-22T14:40:52.170Z,27.03
2023-04-22T14:45:10.079Z,27.05
2023-04-22T14:49:19.309Z,26.97
2023-04-22T15:26:49.541Z,26.62
2023-04-22T15:30:58.163Z,26.55
2023-04-22T15:35:05.678Z,26.37
2023-04-22T16:00:44.182Z,25.56
2023-04-22T16:05:13.788Z,25.33
2023-04-22T16:09:35.255Z,25.11
2023-04-22T16:26:55.065Z,24.05
2023-04-22T16:31:25.138Z,23.72
2023-04-22T16:35:48.250Z,23.43
2023-04-22T16:57:34.958Z,21.84
2023-04-22T17:02:03.896Z,21.52
2023-04-22T17:06:32.989Z,21.22
2023-04-22T17:11:02.384Z,20.92
2023-04-22T17:15:32.569Z,20.65
2023-04-22T17:32:52.737Z,19.77
2023-04-22T17:37:21.712Z,19.48
2023-04-22T17:41:51.756Z,19.23
2023-04-22T18:03:40.769Z,18.18
2023-04-22T18:08:10.318Z,17.95
2023-04-22T18:25:30.995Z,17.07
2023-04-22T18:29:59.884Z,16.82
2023-04-22T18:51:23.708Z,15.91
2023-04-22T18:55:52.710Z,15.73
2023-04-22T19:00:21.948Z,15.57
2023-04-22T19:04:52.185Z,15.42
2023-04-22T19:22:18.382Z,14.98
2023-04-22T19:26:47.335Z,14.86
2023-04-22T19:31:16.851Z,14.79
2023-04-22T19:53:07.528Z,14.60
2023-04-22T19:57:37.680Z,14.51
2023-04-22T20:14:57.725Z,14.19
2023-04-22T20:19:28.423Z,14.08
2023-04-22T20:41:14.340Z,13.63
2023-04-22T20:45:35.628Z,13.50
2023-04-22T20:50:04.496Z,13.41
2023-04-22T20:54:32.939Z,13.28
2023-04-22T20:58:41.470Z,13.14
2023-04-22T21:16:01.981Z,12.77
2023-04-22T21:34:30.436Z,12.44
2023-04-22T21:38:59.087Z,12.36
2023-04-22T21:43:29.095Z,12.28
2023-04-22T22:00:50.227Z,12.06
2023-04-22T22:05:19.498Z,11.93
2023-04-22T22:32:43.482Z,11.49
2023-04-22T22:37:02.063Z,11.42
2023-04-22T22:41:31.703Z,11.34
2023-04-22T22:58:42.819Z,11.22
2023-04-22T23:03:11.670Z,11.23
2023-04-22T23:20:36.801Z,11.27
2023-04-22T23:25:05.836Z,11.23
2023-04-22T23:42:16.666Z,11.12
2023-04-22T23:46:45.485Z,11.08
